sensor_id;sensor_type;location;lat;lon;timestamp;P1;durP1;ratioP1;P2;durP2;ratioP2
15689;SDS011;7945;48.816;11.506;2023-07-29T00:00:14;7.22;;;4.68;;
15689;SDS011;7945;48.816;11.506;2023-07-29T00:02:41;6.13;;;4.30;;
15689;SDS011;7945;48.816;11.506;2023-07-29T00:05:09;5.13;;;4.30;;
15689;SDS011;7945;48.816;11.506;2023-07-29T00:07:37;6.32;;;4.60;;
15689;SDS011;7945;48.816;11.506;2023-07-29T00:10:04;5.22;;;4.53;;
15689;SDS011;7945;48.816;11.506;2023-07-29T00:12:32;5.20;;;4.40;;
15689;SDS011;7945;48.816;11.506;2023-07-29T00:14:59;6.97;;;4.63;;
15689;SDS011;7945;48.816;11.506;2023-07-29T00:17:26;5.20;;;3.95;;
15689;SDS011;7945;48.816;11.506;2023-07-29T00:19:52;5.70;;;4.55;;
15689;SDS011;7945;48.816;11.506;2023-07-29T00:22:19;5.88;;;4.05;;
15689;SDS011;7945;48.816;11.506;2023-07-29T00:24:52;5.03;;;4.13;;
15689;SDS011;7945;48.816;11.506;2023-07-29T00:27:20;7.00;;;4.55;;
15689;SDS011;7945;48.816;11.506;2023-07-29T00:29:47;5.90;;;5.07;;
15689;SDS011;7945;48.816;11.506;2023-07-29T00:32:13;5.43;;;4.47;;
15689;SDS011;7945;48.816;11.506;2023-07-29T00:34:40;6.35;;;5.18;;
15689;SDS011;7945;48.816;11.506;2023-07-29T00:37:07;6.10;;;5.03;;
15689;SDS011;7945;48.816;11.506;2023-07-29T00:39:34;6.47;;;5.07;;
15689;SDS011;7945;48.816;11.506;2023-07-29T00:42:03;6.70;;;4.95;;
15689;SDS011;7945;48.816;11.506;2023-07-29T00:44:30;6.68;;;5.18;;
15689;SDS011;7945;48.816;11.506;2023-07-29T00:46:57;6.63;;;5.30;;
15689;SDS011;7945;48.816;11.506;2023-07-29T00:49:26;6.45;;;5.13;;
15689;SDS011;7945;48.816;11.506;2023-07-29T00:51:53;6.32;;;4.93;;
15689;SDS011;7945;48.816;11.506;2023-07-29T00:54:20;6.43;;;5.07;;
15689;SDS011;7945;48.816;11.506;2023-07-29T00:56:47;5.90;;;4.90;;
15689;SDS011;7945;48.816;11.506;2023-07-29T00:59:15;8.18;;;5.32;;
15689;SDS011;7945;48.816;11.506;2023-07-29T01:01:42;7.07;;;5.00;;
15689;SDS011;7945;48.816;11.506;2023-07-29T01:04:09;5.65;;;4.90;;
15689;SDS011;7945;48.816;11.506;2023-07-29T01:06:38;7.38;;;5.20;;
15689;SDS011;7945;48.816;11.506;2023-07-29T01:09:09;6.28;;;4.95;;
15689;SDS011;7945;48.816;11.506;2023-07-29T01:11:46;6.20;;;5.10;;
15689;SDS011;7945;48.816;11.506;2023-07-29T01:14:24;6.38;;;4.80;;
15689;SDS011;7945;48.816;11.506;2023-07-29T01:17:00;6.40;;;4.90;;
15689;SDS011;7945;48.816;11.506;2023-07-29T01:19:36;5.68;;;4.47;;
15689;SDS011;7945;48.816;11.506;2023-07-29T01:22:14;6.15;;;4.78;;
15689;SDS011;7945;48.816;11.506;2023-07-29T01:24:44;5.22;;;4.32;;
15689;SDS011;7945;48.816;11.506;2023-07-29T01:27:10;6.47;;;4.68;;
15689;SDS011;7945;48.816;11.506;2023-07-29T01:29:37;5.47;;;4.50;;
15689;SDS011;7945;48.816;11.506;2023-07-29T01:32:06;5.20;;;4.30;;
15689;SDS011;7945;48.816;11.506;2023-07-29T01:34:39;7.22;;;4.18;;
15689;SDS011;7945;48.816;11.506;2023-07-29T01:37:11;5.22;;;3.85;;
15689;SDS011;7945;48.816;11.506;2023-07-29T01:39:44;5.35;;;4.22;;
15689;SDS011;7945;48.816;11.506;2023-07-29T01:42:11;6.60;;;4.47;;
15689;SDS011;7945;48.816;11.506;2023-07-29T01:44:39;8.85;;;4.40;;
15689;SDS011;7945;48.816;11.506;2023-07-29T01:47:07;5.70;;;4.28;;
15689;SDS011;7945;48.816;11.506;2023-07-29T01:49:34;4.40;;;3.90;;
15689;SDS011;7945;48.816;11.506;2023-07-29T01:52:01;5.15;;;3.60;;
15689;SDS011;7945;48.816;11.506;2023-07-29T01:54:27;4.82;;;3.70;;
15689;SDS011;7945;48.816;11.506;2023-07-29T01:56:56;5.32;;;3.65;;
15689;SDS011;7945;48.816;11.506;2023-07-29T01:59:22;5.55;;;4.20;;
15689;SDS011;7945;48.816;11.506;2023-07-29T02:01:49;4.97;;;3.78;;
15689;SDS011;7945;48.816;11.506;2023-07-29T02:04:16;4.90;;;4.25;;
15689;SDS011;7945;48.816;11.506;2023-07-29T02:06:43;4.72;;;4.00;;
15689;SDS011;7945;48.816;11.506;2023-07-29T02:09:09;5.38;;;3.60;;
15689;SDS011;7945;48.816;11.506;2023-07-29T02:11:36;5.30;;;3.80;;
15689;SDS011;7945;48.816;11.506;2023-07-29T02:14:04;6.20;;;4.10;;
15689;SDS011;7945;48.816;11.506;2023-07-29T02:16:31;4.93;;;3.80;;
15689;SDS011;7945;48.816;11.506;2023-07-29T02:18:59;5.38;;;4.57;;
15689;SDS011;7945;48.816;11.506;2023-07-29T02:21:26;6.25;;;4.63;;
15689;SDS011;7945;48.816;11.506;2023-07-29T02:23:53;5.43;;;4.13;;
15689;SDS011;7945;48.816;11.506;2023-07-29T02:26:20;5.55;;;4.30;;
15689;SDS011;7945;48.816;11.506;2023-07-29T02:28:46;7.50;;;4.90;;
15689;SDS011;7945;48.816;11.506;2023-07-29T02:31:16;6.80;;;4.68;;
15689;SDS011;7945;48.816;11.506;2023-07-29T02:33:43;5.80;;;4.43;;
15689;SDS011;7945;48.816;11.506;2023-07-29T02:36:11;6.70;;;4.78;;
15689;SDS011;7945;48.816;11.506;2023-07-29T02:38:38;4.63;;;3.67;;
15689;SDS011;7945;48.816;11.506;2023-07-29T02:41:05;4.10;;;3.70;;
15689;SDS011;7945;48.816;11.506;2023-07-29T02:43:33;4.93;;;3.65;;
15689;SDS011;7945;48.816;11.506;2023-07-29T02:46:00;6.47;;;3.85;;
15689;SDS011;7945;48.816;11.506;2023-07-29T02:48:28;4.00;;;3.40;;
15689;SDS011;7945;48.816;11.506;2023-07-29T02:50:56;4.65;;;3.15;;
15689;SDS011;7945;48.816;11.506;2023-07-29T02:53:22;4.75;;;2.70;;
15689;SDS011;7945;48.816;11.506;2023-07-29T02:55:49;5.82;;;3.97;;
15689;SDS011;7945;48.816;11.506;2023-07-29T02:58:16;6.95;;;4.43;;
15689;SDS011;7945;48.816;11.506;2023-07-29T03:00:43;8.00;;;4.57;;
15689;SDS011;7945;48.816;11.506;2023-07-29T03:03:10;6.03;;;4.15;;
15689;SDS011;7945;48.816;11.506;2023-07-29T03:05:38;5.30;;;4.22;;
15689;SDS011;7945;48.816;11.506;2023-07-29T03:08:05;6.60;;;4.25;;
15689;SDS011;7945;48.816;11.506;2023-07-29T03:10:34;15.75;;;5.63;;
15689;SDS011;7945;48.816;11.506;2023-07-29T03:13:01;39.60;;;6.95;;
15689;SDS011;7945;48.816;11.506;2023-07-29T03:15:27;20.70;;;6.18;;
15689;SDS011;7945;48.816;11.506;2023-07-29T03:17:54;10.07;;;6.07;;
15689;SDS011;7945;48.816;11.506;2023-07-29T03:20:21;7.07;;;5.30;;
15689;SDS011;7945;48.816;11.506;2023-07-29T03:22:49;6.82;;;4.60;;
15689;SDS011;7945;48.816;11.506;2023-07-29T03:25:16;12.57;;;5.32;;
15689;SDS011;7945;48.816;11.506;2023-07-29T03:27:43;6.97;;;4.95;;
15689;SDS011;7945;48.816;11.506;2023-07-29T03:30:10;8.50;;;5.65;;
15689;SDS011;7945;48.816;11.506;2023-07-29T03:32:38;8.80;;;4.80;;
15689;SDS011;7945;48.816;11.506;2023-07-29T03:35:10;8.40;;;4.90;;
15689;SDS011;7945;48.816;11.506;2023-07-29T03:37:37;8.55;;;5.57;;
15689;SDS011;7945;48.816;11.506;2023-07-29T03:40:06;9.45;;;5.47;;
15689;SDS011;7945;48.816;11.506;2023-07-29T03:42:34;7.82;;;5.60;;
15689;SDS011;7945;48.816;11.506;2023-07-29T03:45:01;6.72;;;4.85;;
15689;SDS011;7945;48.816;11.506;2023-07-29T03:47:27;7.68;;;4.60;;
15689;SDS011;7945;48.816;11.506;2023-07-29T03:49:54;6.18;;;3.50;;
15689;SDS011;7945;48.816;11.506;2023-07-29T03:52:21;4.25;;;3.22;;
15689;SDS011;7945;48.816;11.506;2023-07-29T03:54:48;5.32;;;4.07;;
15689;SDS011;7945;48.816;11.506;2023-07-29T03:57:16;4.18;;;3.05;;
15689;SDS011;7945;48.816;11.506;2023-07-29T03:59:43;4.30;;;3.25;;
15689;SDS011;7945;48.816;11.506;2023-07-29T04:02:10;3.60;;;2.75;;
15689;SDS011;7945;48.816;11.506;2023-07-29T04:04:36;3.47;;;3.17;;
15689;SDS011;7945;48.816;11.506;2023-07-29T04:07:03;3.20;;;2.90;;
15689;SDS011;7945;48.816;11.506;2023-07-29T04:09:31;3.00;;;2.75;;
15689;SDS011;7945;48.816;11.506;2023-07-29T04:11:57;3.63;;;3.33;;
15689;SDS011;7945;48.816;11.506;2023-07-29T04:14:25;3.97;;;3.40;;
15689;SDS011;7945;48.816;11.506;2023-07-29T04:16:52;3.20;;;2.90;;
15689;SDS011;7945;48.816;11.506;2023-07-29T04:19:19;3.30;;;2.90;;
15689;SDS011;7945;48.816;11.506;2023-07-29T04:21:46;4.00;;;3.58;;
15689;SDS011;7945;48.816;11.506;2023-07-29T04:24:12;5.20;;;3.83;;
15689;SDS011;7945;48.816;11.506;2023-07-29T04:26:39;5.78;;;4.30;;
15689;SDS011;7945;48.816;11.506;2023-07-29T04:29:06;3.80;;;3.35;;
15689;SDS011;7945;48.816;11.506;2023-07-29T04:31:34;3.30;;;3.00;;
15689;SDS011;7945;48.816;11.506;2023-07-29T04:34:01;3.78;;;3.28;;
15689;SDS011;7945;48.816;11.506;2023-07-29T04:36:28;3.45;;;3.05;;
15689;SDS011;7945;48.816;11.506;2023-07-29T04:38:55;3.65;;;2.95;;
15689;SDS011;7945;48.816;11.506;2023-07-29T04:41:22;3.75;;;3.20;;
15689;SDS011;7945;48.816;11.506;2023-07-29T04:43:48;3.70;;;3.40;;
15689;SDS011;7945;48.816;11.506;2023-07-29T04:46:15;4.25;;;3.55;;
15689;SDS011;7945;48.816;11.506;2023-07-29T04:48:43;5.22;;;3.65;;
15689;SDS011;7945;48.816;11.506;2023-07-29T04:51:10;4.22;;;3.78;;
15689;SDS011;7945;48.816;11.506;2023-07-29T04:53:37;4.75;;;4.13;;
15689;SDS011;7945;48.816;11.506;2023-07-29T04:56:04;4.40;;;4.00;;
15689;SDS011;7945;48.816;11.506;2023-07-29T04:58:31;5.13;;;4.30;;
15689;SDS011;7945;48.816;11.506;2023-07-29T05:01:00;5.03;;;4.53;;
15689;SDS011;7945;48.816;11.506;2023-07-29T05:03:27;5.80;;;4.38;;
15689;SDS011;7945;48.816;11.506;2023-07-29T05:05:56;4.70;;;4.20;;
15689;SDS011;7945;48.816;11.506;2023-07-29T05:08:25;5.25;;;4.07;;
15689;SDS011;7945;48.816;11.506;2023-07-29T05:10:52;4.93;;;3.88;;
15689;SDS011;7945;48.816;11.506;2023-07-29T05:13:19;4.88;;;4.03;;
15689;SDS011;7945;48.816;11.506;2023-07-29T05:15:46;4.90;;;3.72;;
15689;SDS011;7945;48.816;11.506;2023-07-29T05:18:13;4.82;;;3.95;;
15689;SDS011;7945;48.816;11.506;2023-07-29T05:20:40;4.90;;;3.78;;
15689;SDS011;7945;48.816;11.506;2023-07-29T05:23:08;5.13;;;3.28;;
15689;SDS011;7945;48.816;11.506;2023-07-29T05:25:35;4.82;;;3.60;;
15689;SDS011;7945;48.816;11.506;2023-07-29T05:28:02;4.68;;;3.97;;
15689;SDS011;7945;48.816;11.506;2023-07-29T05:30:29;4.30;;;3.88;;
15689;SDS011;7945;48.816;11.506;2023-07-29T05:32:56;4.93;;;3.97;;
15689;SDS011;7945;48.816;11.506;2023-07-29T05:35:23;5.00;;;3.70;;
15689;SDS011;7945;48.816;11.506;2023-07-29T05:37:50;4.43;;;3.75;;
15689;SDS011;7945;48.816;11.506;2023-07-29T05:40:18;5.50;;;3.75;;
15689;SDS011;7945;48.816;11.506;2023-07-29T05:42:45;5.35;;;4.03;;
15689;SDS011;7945;48.816;11.506;2023-07-29T05:45:13;4.68;;;3.97;;
15689;SDS011;7945;48.816;11.506;2023-07-29T05:47:39;4.32;;;3.78;;
15689;SDS011;7945;48.816;11.506;2023-07-29T05:50:07;3.97;;;3.40;;
15689;SDS011;7945;48.816;11.506;2023-07-29T05:52:34;4.50;;;3.53;;
15689;SDS011;7945;48.816;11.506;2023-07-29T05:55:03;7.28;;;3.85;;
15689;SDS011;7945;48.816;11.506;2023-07-29T05:57:32;6.63;;;3.70;;
15689;SDS011;7945;48.816;11.506;2023-07-29T05:59:58;6.07;;;3.70;;
15689;SDS011;7945;48.816;11.506;2023-07-29T06:02:25;4.30;;;3.63;;
15689;SDS011;7945;48.816;11.506;2023-07-29T06:04:52;4.78;;;3.72;;
15689;SDS011;7945;48.816;11.506;2023-07-29T06:07:18;4.20;;;3.80;;
15689;SDS011;7945;48.816;11.506;2023-07-29T06:09:45;6.00;;;3.70;;
15689;SDS011;7945;48.816;11.506;2023-07-29T06:15:38;5.43;;;3.95;;
15689;SDS011;7945;48.816;11.506;2023-07-29T06:18:04;4.85;;;4.05;;
15689;SDS011;7945;48.816;11.506;2023-07-29T06:20:31;4.88;;;4.38;;
15689;SDS011;7945;48.816;11.506;2023-07-29T06:22:58;6.63;;;4.57;;
15689;SDS011;7945;48.816;11.506;2023-07-29T06:25:25;5.78;;;4.13;;
15689;SDS011;7945;48.816;11.506;2023-07-29T06:27:51;4.90;;;4.03;;
15689;SDS011;7945;48.816;11.506;2023-07-29T06:30:18;5.35;;;4.10;;
15689;SDS011;7945;48.816;11.506;2023-07-29T06:32:46;5.80;;;4.10;;
15689;SDS011;7945;48.816;11.506;2023-07-29T06:35:13;4.40;;;3.40;;
15689;SDS011;7945;48.816;11.506;2023-07-29T06:37:40;3.75;;;3.42;;
15689;SDS011;7945;48.816;11.506;2023-07-29T06:40:07;3.53;;;3.17;;
15689;SDS011;7945;48.816;11.506;2023-07-29T06:42:34;7.22;;;3.63;;
15689;SDS011;7945;48.816;11.506;2023-07-29T06:45:02;3.85;;;3.45;;
15689;SDS011;7945;48.816;11.506;2023-07-29T06:47:29;4.03;;;3.60;;
15689;SDS011;7945;48.816;11.506;2023-07-29T06:49:57;4.63;;;3.22;;
15689;SDS011;7945;48.816;11.506;2023-07-29T06:52:24;3.88;;;2.85;;
15689;SDS011;7945;48.816;11.506;2023-07-29T06:54:51;6.45;;;3.40;;
15689;SDS011;7945;48.816;11.506;2023-07-29T06:57:17;3.08;;;2.53;;
15689;SDS011;7945;48.816;11.506;2023-07-29T06:59:44;4.25;;;2.92;;
15689;SDS011;7945;48.816;11.506;2023-07-29T07:02:10;3.85;;;3.28;;
15689;SDS011;7945;48.816;11.506;2023-07-29T07:04:37;4.82;;;3.33;;
15689;SDS011;7945;48.816;11.506;2023-07-29T07:07:05;4.95;;;3.15;;
15689;SDS011;7945;48.816;11.506;2023-07-29T07:09:32;3.25;;;2.67;;
15689;SDS011;7945;48.816;11.506;2023-07-29T07:11:59;3.60;;;2.97;;
15689;SDS011;7945;48.816;11.506;2023-07-29T07:14:25;4.32;;;2.83;;
15689;SDS011;7945;48.816;11.506;2023-07-29T07:16:52;3.35;;;3.05;;
15689;SDS011;7945;48.816;11.506;2023-07-29T07:19:19;4.10;;;3.00;;
15689;SDS011;7945;48.816;11.506;2023-07-29T07:21:46;5.07;;;3.67;;
15689;SDS011;7945;48.816;11.506;2023-07-29T07:24:14;3.70;;;3.25;;
15689;SDS011;7945;48.816;11.506;2023-07-29T07:26:40;5.15;;;3.22;;
15689;SDS011;7945;48.816;11.506;2023-07-29T07:29:07;4.50;;;3.47;;
15689;SDS011;7945;48.816;11.506;2023-07-29T07:31:34;4.75;;;3.75;;
15689;SDS011;7945;48.816;11.506;2023-07-29T07:34:01;5.25;;;3.17;;
15689;SDS011;7945;48.816;11.506;2023-07-29T07:36:28;3.60;;;3.00;;
15689;SDS011;7945;48.816;11.506;2023-07-29T07:38:55;4.72;;;3.20;;
15689;SDS011;7945;48.816;11.506;2023-07-29T07:41:23;4.50;;;2.90;;
15689;SDS011;7945;48.816;11.506;2023-07-29T07:43:50;3.30;;;3.00;;
15689;SDS011;7945;48.816;11.506;2023-07-29T07:46:17;3.80;;;3.10;;
15689;SDS011;7945;48.816;11.506;2023-07-29T07:48:43;5.90;;;2.95;;
15689;SDS011;7945;48.816;11.506;2023-07-29T07:51:10;5.97;;;3.00;;
15689;SDS011;7945;48.816;11.506;2023-07-29T07:53:38;5.15;;;3.65;;
15689;SDS011;7945;48.816;11.506;2023-07-29T07:56:05;5.47;;;3.75;;
15689;SDS011;7945;48.816;11.506;2023-07-29T07:58:33;6.47;;;3.75;;
15689;SDS011;7945;48.816;11.506;2023-07-29T08:01:01;8.80;;;4.00;;
15689;SDS011;7945;48.816;11.506;2023-07-29T08:03:28;5.80;;;3.90;;
15689;SDS011;7945;48.816;11.506;2023-07-29T08:05:55;5.15;;;3.47;;
15689;SDS011;7945;48.816;11.506;2023-07-29T08:08:21;5.90;;;3.55;;
15689;SDS011;7945;48.816;11.506;2023-07-29T08:10:48;6.22;;;3.70;;
15689;SDS011;7945;48.816;11.506;2023-07-29T08:13:15;5.13;;;3.65;;
15689;SDS011;7945;48.816;11.506;2023-07-29T08:15:46;5.60;;;3.60;;
15689;SDS011;7945;48.816;11.506;2023-07-29T08:18:13;6.05;;;3.72;;
15689;SDS011;7945;48.816;11.506;2023-07-29T08:20:40;4.20;;;3.22;;
15689;SDS011;7945;48.816;11.506;2023-07-29T08:23:07;3.72;;;2.97;;
15689;SDS011;7945;48.816;11.506;2023-07-29T08:25:33;4.70;;;3.03;;
15689;SDS011;7945;48.816;11.506;2023-07-29T08:28:00;5.03;;;3.10;;
15689;SDS011;7945;48.816;11.506;2023-07-29T08:30:27;3.53;;;3.00;;
15689;SDS011;7945;48.816;11.506;2023-07-29T08:32:55;4.32;;;2.75;;
15689;SDS011;7945;48.816;11.506;2023-07-29T08:35:22;3.00;;;2.70;;
15689;SDS011;7945;48.816;11.506;2023-07-29T08:37:49;3.20;;;2.30;;
15689;SDS011;7945;48.816;11.506;2023-07-29T08:40:15;3.05;;;2.42;;
15689;SDS011;7945;48.816;11.506;2023-07-29T08:42:42;2.80;;;2.03;;
15689;SDS011;7945;48.816;11.506;2023-07-29T08:45:12;2.45;;;1.80;;
15689;SDS011;7945;48.816;11.506;2023-07-29T08:47:40;3.47;;;1.75;;
15689;SDS011;7945;48.816;11.506;2023-07-29T08:50:08;2.63;;;1.90;;
15689;SDS011;7945;48.816;11.506;2023-07-29T08:52:36;2.28;;;1.85;;
15689;SDS011;7945;48.816;11.506;2023-07-29T08:55:04;3.22;;;1.90;;
15689;SDS011;7945;48.816;11.506;2023-07-29T08:57:31;2.88;;;1.80;;
15689;SDS011;7945;48.816;11.506;2023-07-29T08:59:58;2.00;;;1.83;;
15689;SDS011;7945;48.816;11.506;2023-07-29T09:02:25;1.95;;;1.70;;
15689;SDS011;7945;48.816;11.506;2023-07-29T09:04:52;2.25;;;1.60;;
15689;SDS011;7945;48.816;11.506;2023-07-29T09:07:20;3.20;;;2.00;;
15689;SDS011;7945;48.816;11.506;2023-07-29T09:09:47;2.75;;;2.25;;
15689;SDS011;7945;48.816;11.506;2023-07-29T09:12:13;3.53;;;2.53;;
15689;SDS011;7945;48.816;11.506;2023-07-29T09:14:40;4.07;;;2.40;;
15689;SDS011;7945;48.816;11.506;2023-07-29T09:17:07;4.07;;;2.30;;
15689;SDS011;7945;48.816;11.506;2023-07-29T09:19:35;2.45;;;2.22;;
15689;SDS011;7945;48.816;11.506;2023-07-29T09:22:03;2.75;;;2.30;;
15689;SDS011;7945;48.816;11.506;2023-07-29T09:24:31;2.88;;;2.55;;
15689;SDS011;7945;48.816;11.506;2023-07-29T09:26:59;2.53;;;2.17;;
15689;SDS011;7945;48.816;11.506;2023-07-29T09:29:27;3.00;;;2.70;;
15689;SDS011;7945;48.816;11.506;2023-07-29T09:31:59;4.45;;;3.15;;
15689;SDS011;7945;48.816;11.506;2023-07-29T09:34:44;5.50;;;2.95;;
15689;SDS011;7945;48.816;11.506;2023-07-29T09:37:15;4.60;;;2.78;;
15689;SDS011;7945;48.816;11.506;2023-07-29T09:39:45;3.53;;;3.00;;
15689;SDS011;7945;48.816;11.506;2023-07-29T09:42:16;5.95;;;3.33;;
15689;SDS011;7945;48.816;11.506;2023-07-29T09:44:43;5.28;;;3.10;;
15689;SDS011;7945;48.816;11.506;2023-07-29T09:47:18;3.95;;;3.17;;
15689;SDS011;7945;48.816;11.506;2023-07-29T09:49:45;5.32;;;3.38;;
15689;SDS011;7945;48.816;11.506;2023-07-29T09:52:13;4.10;;;3.00;;
15689;SDS011;7945;48.816;11.506;2023-07-29T09:54:41;3.80;;;3.00;;
15689;SDS011;7945;48.816;11.506;2023-07-29T09:57:10;5.88;;;3.38;;
15689;SDS011;7945;48.816;11.506;2023-07-29T09:59:37;3.97;;;3.30;;
15689;SDS011;7945;48.816;11.506;2023-07-29T10:02:04;4.53;;;3.50;;
15689;SDS011;7945;48.816;11.506;2023-07-29T10:04:34;3.97;;;3.10;;
15689;SDS011;7945;48.816;11.506;2023-07-29T10:07:02;3.45;;;3.00;;
15689;SDS011;7945;48.816;11.506;2023-07-29T10:09:29;3.60;;;2.85;;
15689;SDS011;7945;48.816;11.506;2023-07-29T10:11:57;3.60;;;3.20;;
15689;SDS011;7945;48.816;11.506;2023-07-29T10:14:26;3.53;;;2.85;;
15689;SDS011;7945;48.816;11.506;2023-07-29T10:16:54;4.72;;;2.50;;
15689;SDS011;7945;48.816;11.506;2023-07-29T10:19:23;2.45;;;2.25;;
15689;SDS011;7945;48.816;11.506;2023-07-29T10:21:51;2.60;;;1.88;;
15689;SDS011;7945;48.816;11.506;2023-07-29T10:24:22;4.38;;;2.40;;
15689;SDS011;7945;48.816;11.506;2023-07-29T10:26:53;2.20;;;2.00;;
15689;SDS011;7945;48.816;11.506;2023-07-29T10:29:28;2.50;;;1.95;;
15689;SDS011;7945;48.816;11.506;2023-07-29T10:31:57;4.00;;;2.10;;
15689;SDS011;7945;48.816;11.506;2023-07-29T10:34:27;2.95;;;2.05;;
15689;SDS011;7945;48.816;11.506;2023-07-29T10:36:55;2.13;;;1.90;;
15689;SDS011;7945;48.816;11.506;2023-07-29T10:39:23;3.60;;;2.00;;
15689;SDS011;7945;48.816;11.506;2023-07-29T10:41:54;2.03;;;1.80;;
15689;SDS011;7945;48.816;11.506;2023-07-29T10:47:17;1.77;;;1.65;;
15689;SDS011;7945;48.816;11.506;2023-07-29T10:49:46;3.47;;;1.60;;
15689;SDS011;7945;48.816;11.506;2023-07-29T10:52:13;1.90;;;1.60;;
15689;SDS011;7945;48.816;11.506;2023-07-29T10:54:42;2.47;;;1.60;;
15689;SDS011;7945;48.816;11.506;2023-07-29T10:57:12;1.98;;;1.60;;
15689;SDS011;7945;48.816;11.506;2023-07-29T10:59:40;2.38;;;1.70;;
15689;SDS011;7945;48.816;11.506;2023-07-29T11:02:20;1.55;;;1.45;;
15689;SDS011;7945;48.816;11.506;2023-07-29T11:04:47;2.13;;;1.70;;
15689;SDS011;7945;48.816;11.506;2023-07-29T11:07:19;2.45;;;1.83;;
15689;SDS011;7945;48.816;11.506;2023-07-29T11:09:57;1.92;;;1.73;;
15689;SDS011;7945;48.816;11.506;2023-07-29T11:12:35;3.08;;;2.10;;
15689;SDS011;7945;48.816;11.506;2023-07-29T11:15:23;1.98;;;1.52;;
15689;SDS011;7945;48.816;11.506;2023-07-29T11:17:53;5.22;;;1.70;;
15689;SDS011;7945;48.816;11.506;2023-07-29T11:20:22;2.88;;;1.80;;
15689;SDS011;7945;48.816;11.506;2023-07-29T11:22:50;3.42;;;2.10;;
15689;SDS011;7945;48.816;11.506;2023-07-29T11:25:17;8.20;;;2.13;;
15689;SDS011;7945;48.816;11.506;2023-07-29T11:27:44;2.72;;;1.90;;
15689;SDS011;7945;48.816;11.506;2023-07-29T11:30:12;2.47;;;1.60;;
15689;SDS011;7945;48.816;11.506;2023-07-29T11:32:42;2.38;;;2.00;;
15689;SDS011;7945;48.816;11.506;2023-07-29T11:35:11;1.80;;;1.70;;
15689;SDS011;7945;48.816;11.506;2023-07-29T11:37:39;2.15;;;1.90;;
15689;SDS011;7945;48.816;11.506;2023-07-29T11:40:08;2.88;;;1.90;;
15689;SDS011;7945;48.816;11.506;2023-07-29T11:42:36;2.13;;;1.70;;
15689;SDS011;7945;48.816;11.506;2023-07-29T11:45:03;2.42;;;2.10;;
15689;SDS011;7945;48.816;11.506;2023-07-29T11:47:31;2.40;;;1.80;;
15689;SDS011;7945;48.816;11.506;2023-07-29T11:50:02;3.50;;;1.95;;
15689;SDS011;7945;48.816;11.506;2023-07-29T11:52:31;2.08;;;1.88;;
15689;SDS011;7945;48.816;11.506;2023-07-29T11:54:59;4.47;;;1.90;;
15689;SDS011;7945;48.816;11.506;2023-07-29T11:57:26;1.58;;;1.48;;
15689;SDS011;7945;48.816;11.506;2023-07-29T11:59:53;2.83;;;1.98;;
15689;SDS011;7945;48.816;11.506;2023-07-29T12:02:20;1.60;;;1.50;;
15689;SDS011;7945;48.816;11.506;2023-07-29T12:04:49;2.42;;;1.65;;
15689;SDS011;7945;48.816;11.506;2023-07-29T12:07:17;1.65;;;1.40;;
15689;SDS011;7945;48.816;11.506;2023-07-29T12:09:46;2.35;;;1.60;;
15689;SDS011;7945;48.816;11.506;2023-07-29T12:12:13;3.17;;;1.45;;
15689;SDS011;7945;48.816;11.506;2023-07-29T12:14:43;1.60;;;1.50;;
15689;SDS011;7945;48.816;11.506;2023-07-29T12:17:11;2.45;;;1.55;;
15689;SDS011;7945;48.816;11.506;2023-07-29T12:19:39;1.60;;;1.40;;
15689;SDS011;7945;48.816;11.506;2023-07-29T12:22:07;1.92;;;1.73;;
15689;SDS011;7945;48.816;11.506;2023-07-29T12:24:35;2.05;;;1.55;;
15689;SDS011;7945;48.816;11.506;2023-07-29T12:27:05;1.48;;;1.30;;
15689;SDS011;7945;48.816;11.506;2023-07-29T12:29:39;2.67;;;1.65;;
15689;SDS011;7945;48.816;11.506;2023-07-29T12:32:06;1.83;;;1.50;;
15689;SDS011;7945;48.816;11.506;2023-07-29T12:34:34;2.40;;;1.50;;
15689;SDS011;7945;48.816;11.506;2023-07-29T12:37:03;3.13;;;1.48;;
15689;SDS011;7945;48.816;11.506;2023-07-29T12:39:31;1.25;;;1.17;;
15689;SDS011;7945;48.816;11.506;2023-07-29T12:41:59;1.50;;;1.40;;
15689;SDS011;7945;48.816;11.506;2023-07-29T12:44:31;1.75;;;1.40;;
15689;SDS011;7945;48.816;11.506;2023-07-29T12:46:59;1.35;;;1.25;;
15689;SDS011;7945;48.816;11.506;2023-07-29T12:49:26;2.17;;;1.50;;
15689;SDS011;7945;48.816;11.506;2023-07-29T12:51:54;1.83;;;1.40;;
15689;SDS011;7945;48.816;11.506;2023-07-29T12:54:21;1.65;;;1.50;;
15689;SDS011;7945;48.816;11.506;2023-07-29T12:56:48;1.40;;;1.30;;
15689;SDS011;7945;48.816;11.506;2023-07-29T12:59:14;1.95;;;1.70;;
15689;SDS011;7945;48.816;11.506;2023-07-29T13:01:43;2.20;;;1.85;;
15689;SDS011;7945;48.816;11.506;2023-07-29T13:04:09;2.53;;;1.75;;
15689;SDS011;7945;48.816;11.506;2023-07-29T13:06:37;5.35;;;1.73;;
15689;SDS011;7945;48.816;11.506;2023-07-29T13:09:04;2.45;;;1.67;;
15689;SDS011;7945;48.816;11.506;2023-07-29T13:11:32;3.67;;;1.70;;
15689;SDS011;7945;48.816;11.506;2023-07-29T13:13:58;2.45;;;1.75;;
15689;SDS011;7945;48.816;11.506;2023-07-29T13:16:26;2.30;;;1.70;;
15689;SDS011;7945;48.816;11.506;2023-07-29T13:18:54;1.98;;;1.75;;
15689;SDS011;7945;48.816;11.506;2023-07-29T13:21:21;2.72;;;1.92;;
15689;SDS011;7945;48.816;11.506;2023-07-29T13:23:48;2.38;;;1.48;;
15689;SDS011;7945;48.816;11.506;2023-07-29T13:26:15;3.05;;;1.52;;
15689;SDS011;7945;48.816;11.506;2023-07-29T13:28:41;2.80;;;1.55;;
15689;SDS011;7945;48.816;11.506;2023-07-29T13:31:08;2.33;;;1.63;;
15689;SDS011;7945;48.816;11.506;2023-07-29T13:33:35;2.35;;;1.70;;
15689;SDS011;7945;48.816;11.506;2023-07-29T13:36:04;2.65;;;1.70;;
15689;SDS011;7945;48.816;11.506;2023-07-29T13:38:33;1.70;;;1.48;;
15689;SDS011;7945;48.816;11.506;2023-07-29T13:41:00;1.75;;;1.65;;
15689;SDS011;7945;48.816;11.506;2023-07-29T13:43:27;1.60;;;1.30;;
15689;SDS011;7945;48.816;11.506;2023-07-29T13:45:53;1.42;;;1.33;;
15689;SDS011;7945;48.816;11.506;2023-07-29T13:48:20;1.55;;;1.20;;
15689;SDS011;7945;48.816;11.506;2023-07-29T13:50:47;1.73;;;1.15;;
15689;SDS011;7945;48.816;11.506;2023-07-29T13:53:15;1.70;;;1.10;;
15689;SDS011;7945;48.816;11.506;2023-07-29T13:55:42;2.10;;;0.93;;
15689;SDS011;7945;48.816;11.506;2023-07-29T13:58:08;3.33;;;1.40;;
15689;SDS011;7945;48.816;11.506;2023-07-29T14:00:35;2.17;;;1.10;;
15689;SDS011;7945;48.816;11.506;2023-07-29T14:03:02;1.92;;;1.10;;
15689;SDS011;7945;48.816;11.506;2023-07-29T14:05:29;1.35;;;0.90;;
15689;SDS011;7945;48.816;11.506;2023-07-29T14:07:56;1.85;;;1.10;;
15689;SDS011;7945;48.816;11.506;2023-07-29T14:10:24;1.35;;;1.10;;
15689;SDS011;7945;48.816;11.506;2023-07-29T14:12:51;1.20;;;0.90;;
15689;SDS011;7945;48.816;11.506;2023-07-29T14:15:17;0.80;;;0.80;;
15689;SDS011;7945;48.816;11.506;2023-07-29T14:17:44;0.95;;;0.88;;
15689;SDS011;7945;48.816;11.506;2023-07-29T14:20:11;0.85;;;0.85;;
15689;SDS011;7945;48.816;11.506;2023-07-29T14:22:38;1.17;;;0.82;;
15689;SDS011;7945;48.816;11.506;2023-07-29T14:25:05;1.90;;;0.95;;
15689;SDS011;7945;48.816;11.506;2023-07-29T14:27:35;0.95;;;0.70;;
15689;SDS011;7945;48.816;11.506;2023-07-29T14:30:02;1.30;;;1.20;;
15689;SDS011;7945;48.816;11.506;2023-07-29T14:32:29;1.23;;;0.88;;
15689;SDS011;7945;48.816;11.506;2023-07-29T14:34:55;0.80;;;0.80;;
15689;SDS011;7945;48.816;11.506;2023-07-29T14:37:22;1.80;;;1.17;;
15689;SDS011;7945;48.816;11.506;2023-07-29T14:39:49;1.00;;;0.93;;
15689;SDS011;7945;48.816;11.506;2023-07-29T14:42:16;1.10;;;1.00;;
15689;SDS011;7945;48.816;11.506;2023-07-29T14:44:44;1.10;;;1.00;;
15689;SDS011;7945;48.816;11.506;2023-07-29T14:47:10;1.20;;;1.10;;
15689;SDS011;7945;48.816;11.506;2023-07-29T14:49:37;1.15;;;1.00;;
15689;SDS011;7945;48.816;11.506;2023-07-29T14:52:04;0.98;;;0.70;;
15689;SDS011;7945;48.816;11.506;2023-07-29T14:54:32;1.23;;;1.00;;
15689;SDS011;7945;48.816;11.506;2023-07-29T14:56:59;2.65;;;1.10;;